createdAt,value
2019-02-09T00:00:48.998Z,994.24
2019-02-09T00:01:48.989Z,994.21
2019-02-09T00:02:48.979Z,994.28
2019-02-09T00:03:48.974Z,994.24
2019-02-09T00:04:48.969Z,994.21
2019-02-09T00:05:48.954Z,994.26
2019-02-09T00:06:48.952Z,994.28
2019-02-09T00:07:48.923Z,994.31
2019-02-09T00:08:48.913Z,994.27
2019-02-09T00:09:48.954Z,994.27
2019-02-09T00:10:48.895Z,994.29
2019-02-09T00:11:48.889Z,994.28
2019-02-09T00:12:48.868Z,994.24
2019-02-09T00:13:48.856Z,994.25
2019-02-09T00:14:48.845Z,994.19
2019-02-09T00:15:48.868Z,994.17
2019-02-09T00:16:48.826Z,994.25
2019-02-09T00:17:48.824Z,994.23
2019-02-09T00:18:48.801Z,994.15
2019-02-09T00:19:48.797Z,994.13
2019-02-09T00:20:48.789Z,994.13
2019-02-09T00:21:48.782Z,994.07
2019-02-09T00:22:48.759Z,994.11
2019-02-09T00:23:48.781Z,994.08
2019-02-09T00:24:48.734Z,994.08
2019-02-09T00:25:48.732Z,993.96
2019-02-09T00:26:48.730Z,993.99
2019-02-09T00:27:48.709Z,994.06
2019-02-09T00:28:48.733Z,994.01
2019-02-09T00:29:48.691Z,994.01
2019-02-09T00:30:48.672Z,994.03
2019-02-09T00:31:48.660Z,994.01
2019-02-09T00:32:48.647Z,994.04
2019-02-09T00:33:48.643Z,993.93
2019-02-09T00:34:48.649Z,993.96
2019-02-09T00:35:48.631Z,994.03
2019-02-09T00:36:48.604Z,994.03
2019-02-09T00:37:48.602Z,994.00
2019-02-09T00:38:48.589Z,994.00
2019-02-09T00:39:48.592Z,994.01
2019-02-09T00:40:48.578Z,993.99
2019-02-09T00:41:48.551Z,993.94
2019-02-09T00:42:48.536Z,994.00
2019-02-09T00:43:48.557Z,994.03
2019-02-09T00:44:48.513Z,993.92
2019-02-09T00:45:48.506Z,993.99
2019-02-09T00:46:48.494Z,993.98
2019-02-09T00:47:48.494Z,994.01
2019-02-09T00:48:48.470Z,993.93
2019-02-09T00:49:48.479Z,993.89
2019-02-09T00:50:48.450Z,993.80
2019-02-09T00:51:48.437Z,993.79
2019-02-09T00:52:48.450Z,993.81
2019-02-09T00:53:48.423Z,993.83
2019-02-09T00:54:48.483Z,993.67
2019-02-09T00:55:48.394Z,993.71
2019-02-09T00:56:48.388Z,993.70
2019-02-09T00:57:48.370Z,993.56
2019-02-09T00:58:48.360Z,993.59
2019-02-09T00:59:54.071Z,993.53
2019-02-09T01:00:49.371Z,993.50
2019-02-09T01:01:48.327Z,993.48
2019-02-09T01:02:48.318Z,993.50
2019-02-09T01:03:48.305Z,993.48
2019-02-09T01:04:48.301Z,993.46
2019-02-09T01:05:48.293Z,993.38
2019-02-09T01:06:48.285Z,993.40
2019-02-09T01:07:48.262Z,993.50
2019-02-09T01:08:48.252Z,993.25
2019-02-09T01:09:48.256Z,993.32
2019-02-09T01:10:48.230Z,993.29
2019-02-09T01:11:48.229Z,993.16
2019-02-09T01:12:48.207Z,993.30
2019-02-09T01:13:48.202Z,993.31
2019-02-09T01:14:48.218Z,993.26
2019-02-09T01:15:48.174Z,993.23
2019-02-09T01:16:48.172Z,993.16
2019-02-09T01:17:48.157Z,993.27
2019-02-09T01:18:48.141Z,993.16
2019-02-09T01:19:48.127Z,993.12
2019-02-09T01:20:48.135Z,993.23
2019-02-09T01:21:48.105Z,993.09
2019-02-09T01:22:48.097Z,993.13
2019-02-09T01:23:48.106Z,993.04
2019-02-09T01:24:48.079Z,993.02
2019-02-09T01:25:48.065Z,993.01
2019-02-09T01:26:48.058Z,992.96
2019-02-09T01:27:48.041Z,992.91
2019-02-09T01:28:48.072Z,992.97
2019-02-09T01:29:48.027Z,992.99
2019-02-09T01:30:48.006Z,992.98
2019-02-09T01:31:47.994Z,992.95
2019-02-09T01:32:47.987Z,993.03
2019-02-09T01:33:47.977Z,992.92
2019-02-09T01:34:47.996Z,992.99
2019-02-09T01:35:47.961Z,992.96
2019-02-09T01:36:47.944Z,992.92
2019-02-09T01:37:47.934Z,993.09
2019-02-09T01:38:47.919Z,992.95
2019-02-09T01:39:47.909Z,992.99
2019-02-09T01:40:47.910Z,992.93
2019-02-09T01:41:47.894Z,992.91
2019-02-09T01:42:47.875Z,992.91
2019-02-09T01:43:47.866Z,992.85
2019-02-09T01:44:47.868Z,992.95
2019-02-09T01:45:47.842Z,992.86
2019-02-09T01:46:47.838Z,992.78
2019-02-09T01:47:47.845Z,992.82
2019-02-09T01:48:47.813Z,992.72
2019-02-09T01:49:47.800Z,992.75
2019-02-09T01:50:47.808Z,992.78
2019-02-09T01:51:47.777Z,992.70
2019-02-09T01:52:47.765Z,992.79
2019-02-09T01:53:47.761Z,992.80
2019-02-09T01:54:47.761Z,992.68
2019-02-09T01:55:47.739Z,992.67
2019-02-09T01:56:47.741Z,992.68
2019-02-09T01:57:47.717Z,992.77
2019-02-09T01:58:47.697Z,992.57
2019-02-09T01:59:47.697Z,992.51
2019-02-09T02:00:47.684Z,992.57
2019-02-09T02:01:47.667Z,992.48
2019-02-09T02:02:47.666Z,992.48
2019-02-09T02:03:47.658Z,992.37
2019-02-09T02:04:47.639Z,992.41
2019-02-09T02:05:47.631Z,992.42
2019-02-09T02:06:47.638Z,992.39
2019-02-09T02:07:47.600Z,992.42
2019-02-09T02:08:47.592Z,992.32
2019-02-09T02:09:47.585Z,992.41
2019-02-09T02:10:47.566Z,992.34
2019-02-09T02:11:47.566Z,992.30
2019-02-09T02:12:47.558Z,992.30
2019-02-09T02:13:47.533Z,992.28
2019-02-09T02:14:47.526Z,992.28
2019-02-09T02:15:47.512Z,992.32
2019-02-09T02:16:47.513Z,992.30
2019-02-09T02:17:47.497Z,992.24
2019-02-09T02:18:47.480Z,992.28
2019-02-09T02:19:47.467Z,992.19
2019-02-09T02:20:47.459Z,992.23
2019-02-09T02:21:47.457Z,992.20
2019-02-09T02:22:47.440Z,992.15
2019-02-09T02:23:47.429Z,992.08
2019-02-09T02:24:47.414Z,992.09
2019-02-09T02:25:47.404Z,992.11
2019-02-09T02:26:47.391Z,992.04
2019-02-09T02:27:47.414Z,991.95
2019-02-09T02:28:47.374Z,992.03
2019-02-09T02:29:47.364Z,991.98
2019-02-09T02:30:47.347Z,991.94
2019-02-09T02:31:47.339Z,992.06
2019-02-09T02:32:47.326Z,992.02
2019-02-09T02:33:47.327Z,992.01
2019-02-09T02:34:47.305Z,992.01
2019-02-09T02:35:47.304Z,991.98
2019-02-09T02:36:47.282Z,991.95
2019-02-09T02:37:47.280Z,991.98
2019-02-09T02:38:47.272Z,992.02
2019-02-09T02:39:47.280Z,991.95
2019-02-09T02:40:47.236Z,991.87
2019-02-09T02:41:47.232Z,991.97
2019-02-09T02:42:47.215Z,991.96
2019-02-09T02:43:47.208Z,991.99
2019-02-09T02:44:47.193Z,991.91
2019-02-09T02:45:47.194Z,991.87
2019-02-09T02:46:47.171Z,991.78
2019-02-09T02:47:47.166Z,991.84
2019-02-09T02:48:47.148Z,991.85
2019-02-09T02:49:47.139Z,991.84
2019-02-09T02:50:47.161Z,991.87
2019-02-09T02:51:47.123Z,991.98
2019-02-09T02:52:47.105Z,991.74
2019-02-09T02:53:47.105Z,991.83
2019-02-09T02:54:47.086Z,991.85
2019-02-09T02:55:47.078Z,991.90
2019-02-09T02:56:47.098Z,991.81
2019-02-09T02:57:47.049Z,991.82
2019-02-09T02:58:47.037Z,991.84
2019-02-09T02:59:47.035Z,991.77
2019-02-09T03:00:47.015Z,991.75
2019-02-09T03:01:47.005Z,991.70
2019-02-09T03:02:47.028Z,991.72
2019-02-09T03:03:46.982Z,991.64
2019-02-09T03:04:46.971Z,991.79
2019-02-09T03:05:46.967Z,991.76
2019-02-09T03:06:47.934Z,991.77
2019-02-09T03:07:46.945Z,991.69
2019-02-09T03:08:46.942Z,991.75
2019-02-09T03:09:46.917Z,991.75
2019-02-09T03:10:46.906Z,991.79
2019-02-09T03:11:46.901Z,991.77
2019-02-09T03:12:46.889Z,991.76
2019-02-09T03:13:46.916Z,991.74
2019-02-09T03:14:46.864Z,991.73
2019-02-09T03:15:46.863Z,991.75
2019-02-09T03:16:46.841Z,991.79
2019-02-09T03:17:46.835Z,991.75
2019-02-09T03:18:46.818Z,991.79
2019-02-09T03:19:46.808Z,991.77
2019-02-09T03:20:46.809Z,991.72
2019-02-09T03:21:46.796Z,991.73
2019-02-09T03:22:46.787Z,991.72
2019-02-09T03:23:46.773Z,991.75
2019-02-09T03:24:46.752Z,991.75
2019-02-09T03:25:46.739Z,991.78
2019-02-09T03:26:46.768Z,991.77
2019-02-09T03:27:46.719Z,991.72
2019-02-09T03:28:46.711Z,991.78
2019-02-09T03:29:46.707Z,991.82
2019-02-09T03:30:48.793Z,991.88
2019-02-09T03:31:46.677Z,991.76
2019-02-09T03:32:46.682Z,991.78
2019-02-09T03:33:46.664Z,991.74
2019-02-09T03:34:46.644Z,991.79
2019-02-09T03:35:46.634Z,991.81
2019-02-09T03:36:46.618Z,991.78
2019-02-09T03:37:46.628Z,991.73
2019-02-09T03:38:46.597Z,991.76
2019-02-09T03:39:46.586Z,991.79
2019-02-09T03:40:46.577Z,991.84
2019-02-09T03:41:46.570Z,991.81
2019-02-09T03:42:46.567Z,991.76
2019-02-09T03:43:46.561Z,991.85
2019-02-09T03:44:46.530Z,991.95
2019-02-09T03:45:46.518Z,991.94
2019-02-09T03:46:46.508Z,991.94
2019-02-09T03:47:46.504Z,991.91
2019-02-09T03:48:46.499Z,991.92
2019-02-09T03:49:46.475Z,991.82
2019-02-09T03:50:46.469Z,991.90
2019-02-09T03:51:46.455Z,991.96
2019-02-09T03:52:46.445Z,991.94
2019-02-09T03:53:46.448Z,991.84
2019-02-09T03:54:46.433Z,991.94
2019-02-09T03:55:46.412Z,991.90
2019-02-09T03:56:46.399Z,991.94
2019-02-09T03:57:46.389Z,991.93
2019-02-09T03:58:46.396Z,991.95
2019-02-09T03:59:46.378Z,991.99
2019-02-09T04:00:54.973Z,991.99
2019-02-09T04:01:47.340Z,991.98
2019-02-09T04:02:46.331Z,991.96
2019-02-09T04:03:46.320Z,991.89
2019-02-09T04:04:46.321Z,991.90
2019-02-09T04:05:46.302Z,991.92
2019-02-09T04:06:46.291Z,991.95
2019-02-09T04:07:53.821Z,991.95
2019-02-09T04:08:46.275Z,991.96
2019-02-09T04:09:46.286Z,991.90
2019-02-09T04:10:46.241Z,991.92
2019-02-09T04:11:46.312Z,991.92
2019-02-09T04:12:46.220Z,992.02
2019-02-09T04:13:46.208Z,991.99
2019-02-09T04:14:46.258Z,992.08
2019-02-09T04:15:46.208Z,992.02
2019-02-09T04:16:46.184Z,991.99
2019-02-09T04:17:46.164Z,991.94
2019-02-09T04:18:46.166Z,991.90
2019-02-09T04:19:46.143Z,991.94
2019-02-09T04:20:46.168Z,991.99
2019-02-09T04:21:46.120Z,992.03
2019-02-09T04:22:46.109Z,992.00
2019-02-09T04:23:46.109Z,991.95
2019-02-09T04:24:46.085Z,992.06
2019-02-09T04:25:46.076Z,992.02
2019-02-09T04:26:46.076Z,992.01
2019-02-09T04:27:46.052Z,991.97
2019-02-09T04:28:46.040Z,991.98
2019-02-09T04:29:46.041Z,991.91
2019-02-09T04:30:46.020Z,991.96
2019-02-09T04:31:46.034Z,991.90
2019-02-09T04:32:46.010Z,991.93
2019-02-09T04:33:45.991Z,991.92
2019-02-09T04:34:45.975Z,991.92
2019-02-09T04:35:45.969Z,991.91
2019-02-09T04:36:45.988Z,991.98
2019-02-09T04:37:45.942Z,991.92
2019-02-09T04:38:45.935Z,991.86
2019-02-09T04:39:45.920Z,991.83
2019-02-09T04:40:45.910Z,991.82
2019-02-09T04:41:45.906Z,991.86
2019-02-09T04:42:45.900Z,991.80
2019-02-09T04:43:45.888Z,991.82
2019-02-09T04:44:45.869Z,991.84
2019-02-09T04:45:45.855Z,991.78
2019-02-09T04:46:45.855Z,991.86
2019-02-09T04:47:45.847Z,991.80
2019-02-09T04:48:45.832Z,991.76
2019-02-09T04:49:45.826Z,991.74
2019-02-09T04:50:45.798Z,991.73
2019-02-09T04:51:45.794Z,991.74
2019-02-09T04:52:45.778Z,991.77
2019-02-09T04:53:45.783Z,991.77
2019-02-09T04:54:45.774Z,991.79
2019-02-09T04:55:45.745Z,991.76
2019-02-09T04:56:45.749Z,991.79
2019-02-09T04:57:45.723Z,991.84
2019-02-09T04:58:45.711Z,991.81
2019-02-09T04:59:45.699Z,991.90
2019-02-09T05:00:45.696Z,991.74
2019-02-09T05:01:45.690Z,991.74
2019-02-09T05:02:45.666Z,991.73
2019-02-09T05:03:45.656Z,991.74
2019-02-09T05:04:45.644Z,991.72
2019-02-09T05:05:45.647Z,991.73
2019-02-09T05:06:45.627Z,991.71
2019-02-09T05:07:45.614Z,991.72
2019-02-09T05:08:45.614Z,991.67
2019-02-09T05:09:45.610Z,991.72
2019-02-09T05:10:45.579Z,991.70
2019-02-09T05:11:45.579Z,991.66
2019-02-09T05:12:45.556Z,991.63
2019-02-09T05:13:45.565Z,991.62
2019-02-09T05:14:45.538Z,991.60
2019-02-09T05:15:45.532Z,991.62
2019-02-09T05:16:45.550Z,991.64
2019-02-09T05:17:45.502Z,991.66
2019-02-09T05:18:45.489Z,991.68
2019-02-09T05:19:45.483Z,991.64
2019-02-09T05:20:45.488Z,991.64
2019-02-09T05:21:45.458Z,991.63
2019-02-09T05:22:45.474Z,991.66
2019-02-09T05:23:45.437Z,991.72
2019-02-09T05:24:45.425Z,991.64
2019-02-09T05:25:45.421Z,991.71
2019-02-09T05:26:45.411Z,991.60
2019-02-09T05:27:45.390Z,991.56
2019-02-09T05:28:45.402Z,991.68
2019-02-09T05:29:45.372Z,991.68
2019-02-09T05:30:45.379Z,991.71
2019-02-09T05:31:45.347Z,991.67
2019-02-09T05:32:45.335Z,991.75
2019-02-09T05:33:45.370Z,991.65
2019-02-09T05:34:45.311Z,991.70
2019-02-09T05:35:45.314Z,991.66
2019-02-09T05:36:45.292Z,991.63
2019-02-09T05:37:45.280Z,991.63
2019-02-09T05:38:45.280Z,991.69
2019-02-09T05:39:45.271Z,991.70
2019-02-09T05:40:45.245Z,991.74
2019-02-09T05:41:45.237Z,991.79
2019-02-09T05:42:45.231Z,991.80
2019-02-09T05:43:45.215Z,991.76
2019-02-09T05:44:45.216Z,991.81
2019-02-09T05:45:45.200Z,991.76
2019-02-09T05:46:45.179Z,991.77
2019-02-09T05:47:45.169Z,991.82
2019-02-09T05:48:45.163Z,991.75
2019-02-09T05:49:45.185Z,991.74
2019-02-09T05:50:45.137Z,991.73
2019-02-09T05:51:45.125Z,991.73
2019-02-09T05:52:45.115Z,991.70
2019-02-09T05:53:45.106Z,991.65
2019-02-09T05:54:45.090Z,991.65
2019-02-09T05:55:45.116Z,991.62
2019-02-09T05:56:45.076Z,991.59
2019-02-09T05:57:45.071Z,991.57
2019-02-09T05:58:45.049Z,991.63
2019-02-09T05:59:45.036Z,991.56
2019-02-09T06:00:45.026Z,991.62
2019-02-09T06:01:45.026Z,991.62
2019-02-09T06:02:45.010Z,991.60
2019-02-09T06:03:45.025Z,991.54
2019-02-09T06:04:44.981Z,991.51
2019-02-09T06:05:44.973Z,991.64
2019-02-09T06:06:44.973Z,991.67
2019-02-09T06:07:44.975Z,991.61
2019-02-09T06:08:44.938Z,991.62
2019-02-09T06:09:44.931Z,991.63
2019-02-09T06:10:44.917Z,991.65
2019-02-09T06:11:44.905Z,991.69
2019-02-09T06:12:44.892Z,991.61
2019-02-09T06:13:44.896Z,991.68
2019-02-09T06:14:44.870Z,991.68
2019-02-09T06:15:44.867Z,991.76
2019-02-09T06:16:44.847Z,991.72
2019-02-09T06:17:44.840Z,991.80
2019-02-09T06:18:44.863Z,991.70
2019-02-09T06:19:44.817Z,991.76
2019-02-09T06:20:44.811Z,991.74
2019-02-09T06:21:44.796Z,991.79
2019-02-09T06:22:44.786Z,991.80
2019-02-09T06:23:44.784Z,991.84
2019-02-09T06:24:44.785Z,991.85
2019-02-09T06:25:44.749Z,991.84
2019-02-09T06:26:44.739Z,991.77
2019-02-09T06:27:44.727Z,991.69
2019-02-09T06:28:44.715Z,991.77
2019-02-09T06:29:44.724Z,991.75
2019-02-09T06:30:44.694Z,991.81
2019-02-09T06:31:44.683Z,991.73
2019-02-09T06:32:44.671Z,991.93
2019-02-09T06:33:44.661Z,991.88
2019-02-09T06:34:44.665Z,991.89
2019-02-09T06:35:44.655Z,991.88
2019-02-09T06:36:44.665Z,991.93
2019-02-09T06:37:44.618Z,991.88
2019-02-09T06:38:44.606Z,991.84
2019-02-09T06:39:44.595Z,991.82
2019-02-09T06:40:44.583Z,991.89
2019-02-09T06:41:44.576Z,991.88
2019-02-09T06:42:44.575Z,991.84
2019-02-09T06:43:44.549Z,991.82
2019-02-09T06:44:44.541Z,991.81
2019-02-09T06:45:44.564Z,991.85
2019-02-09T06:46:44.520Z,991.81
2019-02-09T06:47:44.511Z,991.83
2019-02-09T06:48:44.496Z,991.77
2019-02-09T06:49:44.485Z,991.82
2019-02-09T06:50:44.475Z,991.84
2019-02-09T06:51:44.475Z,991.89
2019-02-09T06:52:44.452Z,991.94
2019-02-09T06:53:44.455Z,991.94
2019-02-09T06:54:44.442Z,991.96
2019-02-09T06:55:44.419Z,991.97
2019-02-09T06:56:44.410Z,991.95
2019-02-09T06:57:44.439Z,991.94
2019-02-09T06:58:44.387Z,991.98
2019-02-09T06:59:44.374Z,991.99
2019-02-09T07:00:44.367Z,992.01
2019-02-09T07:01:48.686Z,992.05
2019-02-09T07:02:44.343Z,992.08
2019-02-09T07:03:44.369Z,992.14
2019-02-09T07:04:44.320Z,992.15
2019-02-09T07:05:44.309Z,992.05
2019-02-09T07:06:44.298Z,992.12
2019-02-09T07:07:44.292Z,992.12
2019-02-09T07:08:44.275Z,992.08
2019-02-09T07:09:44.279Z,992.06
2019-02-09T07:10:44.255Z,992.08
2019-02-09T07:11:44.248Z,992.12
2019-02-09T07:12:44.232Z,992.15
2019-02-09T07:13:44.228Z,992.22
2019-02-09T07:14:44.237Z,992.20
2019-02-09T07:15:44.199Z,992.19
2019-02-09T07:16:44.198Z,992.20
2019-02-09T07:17:44.176Z,992.14
2019-02-09T07:18:44.172Z,992.20
2019-02-09T07:19:44.162Z,992.24
2019-02-09T07:20:44.165Z,992.26
2019-02-09T07:21:44.138Z,992.25
2019-02-09T07:22:44.123Z,992.19
2019-02-09T07:23:44.110Z,992.26
2019-02-09T07:24:44.141Z,992.25
2019-02-09T07:25:44.089Z,992.11
2019-02-09T07:26:44.077Z,992.23
2019-02-09T07:27:44.066Z,992.24
2019-02-09T07:28:44.054Z,992.24
2019-02-09T07:29:44.044Z,992.28
2019-02-09T07:30:44.050Z,992.26
2019-02-09T07:31:44.029Z,992.29
2019-02-09T07:32:44.013Z,992.30
2019-02-09T07:33:44.001Z,992.36
2019-02-09T07:34:44.004Z,992.34
2019-02-09T07:35:44.017Z,992.35
2019-02-09T07:36:44.010Z,992.43
2019-02-09T07:37:43.962Z,992.40
2019-02-09T07:38:43.945Z,992.53
2019-02-09T07:39:43.935Z,992.43
2019-02-09T07:40:43.924Z,992.49
2019-02-09T07:41:43.914Z,992.46
2019-02-09T07:42:43.914Z,992.48
2019-02-09T07:43:43.893Z,992.45
2019-02-09T07:44:43.878Z,992.52
2019-02-09T07:45:43.867Z,992.46
2019-02-09T07:46:43.886Z,992.48
2019-02-09T07:47:43.844Z,992.51
2019-02-09T07:48:43.835Z,992.39
2019-02-09T07:49:43.830Z,992.49
2019-02-09T07:50:43.823Z,992.57
2019-02-09T07:51:43.802Z,992.60
2019-02-09T07:52:43.812Z,992.54
2019-02-09T07:53:43.779Z,992.60
2019-02-09T07:54:43.768Z,992.60
2019-02-09T07:55:43.757Z,992.65
2019-02-09T07:56:43.752Z,992.61
2019-02-09T07:57:43.745Z,992.66
2019-02-09T07:58:43.726Z,992.68
2019-02-09T07:59:43.744Z,992.75
2019-02-09T08:00:43.701Z,992.76
2019-02-09T08:01:43.690Z,992.80
2019-02-09T08:02:43.682Z,992.78
2019-02-09T08:03:43.674Z,992.79
2019-02-09T08:04:43.656Z,992.86
2019-02-09T08:05:43.658Z,992.85
2019-02-09T08:06:43.635Z,992.79
2019-02-09T08:07:43.623Z,992.87
2019-02-09T08:08:43.613Z,992.87
2019-02-09T08:09:43.603Z,992.90
2019-02-09T08:10:43.604Z,992.79
2019-02-09T08:11:43.580Z,992.89
2019-02-09T08:12:43.571Z,992.97
2019-02-09T08:13:43.557Z,992.88
2019-02-09T08:14:43.545Z,992.87
2019-02-09T08:15:43.583Z,992.94
2019-02-09T08:16:43.524Z,992.99
2019-02-09T08:17:43.516Z,992.95
2019-02-09T08:18:43.503Z,993.02
2019-02-09T08:19:43.492Z,993.12
2019-02-09T08:20:43.479Z,993.12
2019-02-09T08:21:43.515Z,993.25
2019-02-09T08:22:43.460Z,993.16
2019-02-09T08:23:43.457Z,993.16
2019-02-09T08:24:43.440Z,993.23
2019-02-09T08:25:43.426Z,993.21
2019-02-09T08:26:43.414Z,993.16
2019-02-09T08:27:43.432Z,993.26
2019-02-09T08:28:43.394Z,993.26
2019-02-09T08:29:43.388Z,993.19
2019-02-09T08:30:43.368Z,993.28
2019-02-09T08:31:43.360Z,993.27
2019-02-09T08:32:43.347Z,993.24
2019-02-09T08:33:43.352Z,993.25
2019-02-09T08:34:43.330Z,993.25
2019-02-09T08:35:43.346Z,993.29
2019-02-09T08:36:43.303Z,993.28
2019-02-09T08:37:43.299Z,993.30
2019-02-09T08:38:43.295Z,993.31
2019-02-09T08:39:43.271Z,993.33
2019-02-09T08:40:43.260Z,993.26
2019-02-09T08:41:43.255Z,993.28
2019-02-09T08:42:43.238Z,993.30
2019-02-09T08:43:43.247Z,993.32
2019-02-09T08:44:43.219Z,993.28
2019-02-09T08:45:43.206Z,993.43
2019-02-09T08:46:43.196Z,993.31
2019-02-09T08:47:43.188Z,993.32
2019-02-09T08:48:43.174Z,993.30
2019-02-09T08:49:43.174Z,993.31
2019-02-09T08:50:43.149Z,993.29
2019-02-09T08:51:43.139Z,993.34
2019-02-09T08:52:43.127Z,993.29
2019-02-09T08:53:43.122Z,993.33
2019-02-09T08:54:43.159Z,993.23
2019-02-09T08:55:43.093Z,993.21
2019-02-09T08:56:43.083Z,993.28
2019-02-09T08:57:43.075Z,993.22
2019-02-09T08:58:43.059Z,993.30
2019-02-09T08:59:43.049Z,993.32
2019-02-09T09:00:43.051Z,993.32
2019-02-09T09:01:43.032Z,993.26
2019-02-09T09:02:43.045Z,993.18
2019-02-09T09:03:43.002Z,993.25
2019-02-09T09:04:42.993Z,993.23
2019-02-09T09:05:42.984Z,993.29
2019-02-09T09:06:42.972Z,993.32
2019-02-09T09:07:42.961Z,993.35
2019-02-09T09:08:42.968Z,993.29
2019-02-09T09:09:42.939Z,993.23
2019-02-09T09:10:42.963Z,993.34
2019-02-09T09:11:42.922Z,993.32
2019-02-09T09:12:42.905Z,993.36
2019-02-09T09:13:42.905Z,993.35
2019-02-09T09:14:42.894Z,993.33
2019-02-09T09:15:42.872Z,993.25
2019-02-09T09:16:42.860Z,993.34
2019-02-09T09:17:42.848Z,993.25
2019-02-09T09:18:42.852Z,993.20
2019-02-09T09:19:42.829Z,993.25
2019-02-09T09:20:42.814Z,993.28
2019-02-09T09:21:42.805Z,993.19
2019-02-09T09:22:42.796Z,993.26
2019-02-09T09:23:42.792Z,993.18
2019-02-09T09:24:42.771Z,993.18
2019-02-09T09:25:42.758Z,993.27
2019-02-09T09:26:42.748Z,993.25
2019-02-09T09:27:42.750Z,993.26
2019-02-09T09:28:42.737Z,993.28
2019-02-09T09:29:42.748Z,993.29
2019-02-09T09:30:42.703Z,993.29
2019-02-09T09:31:42.688Z,993.30
2019-02-09T09:32:42.682Z,993.31
2019-02-09T09:33:42.676Z,993.36
2019-02-09T09:34:42.656Z,993.39
2019-02-09T09:35:42.681Z,993.33
2019-02-09T09:36:42.636Z,993.41
2019-02-09T09:37:42.622Z,993.43
2019-02-09T09:38:42.612Z,993.34
2019-02-09T09:39:42.607Z,993.36
2019-02-09T09:40:42.592Z,993.47
2019-02-09T09:41:42.615Z,993.52
2019-02-09T09:42:42.567Z,993.52
2019-02-09T09:43:42.557Z,993.49
2019-02-09T09:44:42.545Z,993.56
2019-02-09T09:45:42.537Z,993.63
2019-02-09T09:46:42.525Z,993.52
2019-02-09T09:47:42.529Z,993.45
2019-02-09T09:48:42.521Z,993.49
2019-02-09T09:49:42.488Z,993.52
2019-02-09T09:50:42.477Z,993.51
2019-02-09T09:51:42.468Z,993.51
2019-02-09T09:52:42.455Z,993.50
2019-02-09T09:53:42.488Z,993.53
2019-02-09T09:54:42.436Z,993.40
2019-02-09T09:55:42.428Z,993.62
2019-02-09T09:56:42.409Z,993.41
2019-02-09T09:57:42.397Z,993.56
2019-02-09T09:58:42.388Z,993.48
2019-02-09T09:59:42.395Z,993.56
2019-02-09T10:00:42.370Z,993.46
2019-02-09T10:01:42.354Z,993.51
2019-02-09T10:02:42.343Z,993.49
2019-02-09T10:03:42.337Z,993.66
2019-02-09T10:04:42.355Z,993.54
2019-02-09T10:05:42.310Z,993.63
2019-02-09T10:06:42.300Z,993.55
2019-02-09T10:07:42.294Z,993.50
2019-02-09T10:08:42.274Z,993.58
2019-02-09T10:09:42.274Z,993.20
2019-02-09T10:10:42.293Z,993.39
2019-02-09T10:11:42.243Z,993.58
2019-02-09T10:12:42.230Z,993.59
2019-02-09T10:13:42.227Z,993.42
2019-02-09T10:14:42.211Z,993.70
2019-02-09T10:15:42.209Z,993.53
2019-02-09T10:16:42.202Z,993.63
2019-02-09T10:17:42.175Z,993.58
2019-02-09T10:18:42.194Z,993.56
2019-02-09T10:19:42.171Z,993.76
2019-02-09T10:20:42.180Z,993.65
2019-02-09T10:21:42.130Z,993.69
2019-02-09T10:22:42.152Z,993.45
2019-02-09T10:23:44.099Z,993.58
2019-02-09T10:24:42.097Z,993.44
2019-02-09T10:25:42.087Z,993.62
2019-02-09T10:26:42.077Z,993.56
2019-02-09T10:27:42.100Z,993.56
2019-02-09T10:28:42.064Z,993.60
2019-02-09T10:29:42.065Z,993.57
2019-02-09T10:30:42.027Z,993.29
2019-02-09T10:31:42.018Z,993.58
2019-02-09T10:32:44.421Z,993.56
2019-02-09T10:33:41.996Z,993.57
2019-02-09T10:34:42.002Z,993.60
2019-02-09T10:35:42.002Z,993.66
2019-02-09T10:36:41.960Z,993.73
2019-02-09T10:37:41.949Z,993.67
2019-02-09T10:38:41.952Z,993.68
2019-02-09T10:39:41.927Z,993.83
2019-02-09T10:40:41.930Z,993.70
2019-02-09T10:41:41.920Z,993.68
2019-02-09T10:42:41.910Z,993.75
2019-02-09T10:43:41.887Z,993.80
2019-02-09T10:44:41.895Z,993.84
2019-02-09T10:45:41.868Z,993.76
2019-02-09T10:46:41.858Z,993.85
2019-02-09T10:47:41.843Z,993.64
2019-02-09T10:48:41.833Z,993.70
2019-02-09T10:49:41.832Z,993.74
2019-02-09T10:50:41.844Z,993.65
2019-02-09T10:51:41.814Z,993.60
2019-02-09T10:52:41.800Z,993.68
2019-02-09T10:53:41.784Z,993.54
2019-02-09T10:54:41.768Z,993.64
2019-02-09T10:55:41.765Z,993.63
2019-02-09T10:56:41.786Z,993.41
2019-02-09T10:57:41.725Z,993.62
2019-02-09T10:58:41.744Z,993.62
2019-02-09T10:59:41.761Z,993.55
2019-02-09T11:00:41.701Z,993.59
2019-02-09T11:01:41.690Z,993.58
2019-02-09T11:02:41.718Z,993.65
2019-02-09T11:03:41.691Z,993.55
2019-02-09T11:04:41.657Z,993.48
2019-02-09T11:05:41.652Z,993.62
2019-02-09T11:06:41.639Z,993.60
2019-02-09T11:07:41.620Z,993.56
2019-02-09T11:08:41.629Z,993.59
2019-02-09T11:09:41.619Z,993.59
2019-02-09T11:10:41.585Z,993.69
2019-02-09T11:11:41.573Z,993.69
2019-02-09T11:12:41.566Z,993.72
2019-02-09T11:13:41.569Z,993.77
2019-02-09T11:14:41.598Z,993.81
2019-02-09T11:15:41.526Z,993.79
2019-02-09T11:16:41.517Z,993.89
2019-02-09T11:17:41.502Z,993.89
2019-02-09T11:18:41.513Z,994.02
2019-02-09T11:19:41.528Z,993.90
2019-02-09T11:20:41.483Z,993.81
2019-02-09T11:21:41.465Z,993.85
2019-02-09T11:22:41.467Z,993.87
2019-02-09T11:23:41.443Z,994.03
2019-02-09T11:24:41.447Z,993.85
2019-02-09T11:25:41.417Z,993.87
2019-02-09T11:26:41.428Z,993.88
2019-02-09T11:27:41.394Z,993.83
2019-02-09T11:28:41.380Z,993.71
2019-02-09T11:29:41.377Z,993.75
2019-02-09T11:30:41.651Z,993.79
2019-02-09T11:31:41.360Z,993.71
2019-02-09T11:32:41.349Z,993.77
2019-02-09T11:33:41.997Z,993.77
2019-02-09T11:34:41.317Z,993.77
2019-02-09T11:35:41.320Z,993.81
2019-02-09T11:36:41.317Z,993.80
2019-02-09T11:37:41.300Z,993.81
2019-02-09T11:38:41.288Z,993.79
2019-02-09T11:39:41.258Z,993.82
2019-02-09T11:40:41.253Z,993.75
2019-02-09T11:41:41.241Z,993.85
2019-02-09T11:42:41.293Z,993.85
2019-02-09T11:43:41.218Z,993.77
2019-02-09T11:44:41.417Z,993.66
2019-02-09T11:45:41.213Z,993.64
2019-02-09T11:46:41.186Z,993.65
2019-02-09T11:47:41.174Z,993.79
2019-02-09T11:48:41.187Z,993.72
2019-02-09T11:49:41.160Z,993.65
2019-02-09T11:50:41.159Z,993.76
2019-02-09T11:51:41.129Z,993.76
2019-02-09T11:52:41.140Z,993.74
2019-02-09T11:53:41.106Z,993.71
2019-02-09T11:54:41.142Z,993.74
2019-02-09T11:55:41.081Z,993.78
2019-02-09T11:56:41.079Z,993.67
2019-02-09T11:57:41.070Z,993.70
2019-02-09T11:58:41.086Z,993.74
2019-02-09T11:59:41.099Z,993.74
2019-02-09T12:00:41.031Z,993.71
2019-02-09T12:01:41.017Z,993.70
2019-02-09T12:02:41.004Z,993.67
2019-02-09T12:03:41.008Z,993.61
2019-02-09T12:04:41.044Z,993.57
2019-02-09T12:05:40.976Z,993.55
2019-02-09T12:06:40.973Z,993.41
2019-02-09T12:07:40.948Z,993.55
2019-02-09T12:08:40.939Z,993.61
2019-02-09T12:09:40.932Z,993.64
2019-02-09T12:10:40.972Z,993.49
2019-02-09T12:11:40.910Z,993.66
2019-02-09T12:12:40.895Z,993.67
2019-02-09T12:13:40.882Z,993.60
2019-02-09T12:14:40.880Z,993.67
2019-02-09T12:15:40.883Z,993.67
2019-02-09T12:16:40.849Z,993.78
2019-02-09T12:17:40.837Z,993.76
2019-02-09T12:18:40.831Z,993.72
2019-02-09T12:19:40.833Z,993.70
2019-02-09T12:20:40.908Z,993.71
2019-02-09T12:21:40.793Z,993.53
2019-02-09T12:22:40.780Z,993.58
2019-02-09T12:23:40.780Z,993.49
2019-02-09T12:24:40.768Z,993.59
2019-02-09T12:25:40.755Z,993.79
2019-02-09T12:26:40.752Z,993.80
2019-02-09T12:27:40.740Z,993.90
2019-02-09T12:28:40.723Z,993.82